sensor_id;sensor_type;location;lat;lon;timestamp;P1;durP1;ratioP1;P2;durP2;ratioP2
67869;SDS011;54673;52.262;6.830;2022-08-21T00:02:01;3.83;;;1.97;;
67869;SDS011;54673;52.262;6.830;2022-08-21T00:04:27;3.80;;;1.80;;
67869;SDS011;54673;52.262;6.830;2022-08-21T00:06:53;4.35;;;2.08;;
67869;SDS011;54673;52.262;6.830;2022-08-21T00:09:19;8.27;;;2.17;;
67869;SDS011;54673;52.262;6.830;2022-08-21T00:11:45;4.55;;;2.13;;
67869;SDS011;54673;52.262;6.830;2022-08-21T00:14:12;3.77;;;2.27;;
67869;SDS011;54673;52.262;6.830;2022-08-21T00:16:38;5.65;;;2.20;;
67869;SDS011;54673;52.262;6.830;2022-08-21T00:19:05;4.07;;;2.05;;
67869;SDS011;54673;52.262;6.830;2022-08-21T00:21:31;5.87;;;2.33;;
67869;SDS011;54673;52.262;6.830;2022-08-21T00:23:58;3.72;;;2.08;;
67869;SDS011;54673;52.262;6.830;2022-08-21T00:26:23;4.40;;;2.37;;
67869;SDS011;54673;52.262;6.830;2022-08-21T00:28:49;3.45;;;2.10;;
67869;SDS011;54673;52.262;6.830;2022-08-21T00:31:15;5.83;;;2.10;;
67869;SDS011;54673;52.262;6.830;2022-08-21T00:33:41;4.55;;;2.40;;
67869;SDS011;54673;52.262;6.830;2022-08-21T00:36:07;7.10;;;2.77;;
67869;SDS011;54673;52.262;6.830;2022-08-21T00:38:33;4.43;;;2.55;;
67869;SDS011;54673;52.262;6.830;2022-08-21T00:41:00;4.63;;;2.60;;
67869;SDS011;54673;52.262;6.830;2022-08-21T00:43:28;4.30;;;2.10;;
67869;SDS011;54673;52.262;6.830;2022-08-21T00:46:04;5.60;;;2.20;;
67869;SDS011;54673;52.262;6.830;2022-08-21T00:48:30;3.43;;;2.13;;
67869;SDS011;54673;52.262;6.830;2022-08-21T00:50:57;4.80;;;2.28;;
67869;SDS011;54673;52.262;6.830;2022-08-21T00:53:26;5.13;;;2.45;;
67869;SDS011;54673;52.262;6.830;2022-08-21T00:55:53;4.80;;;2.10;;
67869;SDS011;54673;52.262;6.830;2022-08-21T00:58:20;6.53;;;2.40;;
67869;SDS011;54673;52.262;6.830;2022-08-21T01:00:47;7.60;;;2.30;;
67869;SDS011;54673;52.262;6.830;2022-08-21T01:03:15;3.90;;;1.90;;
67869;SDS011;54673;52.262;6.830;2022-08-21T01:05:42;4.05;;;2.10;;
67869;SDS011;54673;52.262;6.830;2022-08-21T01:08:09;4.18;;;2.13;;
67869;SDS011;54673;52.262;6.830;2022-08-21T01:10:36;4.57;;;2.00;;
67869;SDS011;54673;52.262;6.830;2022-08-21T01:13:02;4.43;;;2.20;;
67869;SDS011;54673;52.262;6.830;2022-08-21T01:15:33;6.15;;;2.78;;
67869;SDS011;54673;52.262;6.830;2022-08-21T01:18:02;4.43;;;2.03;;
67869;SDS011;54673;52.262;6.830;2022-08-21T01:20:30;6.07;;;2.20;;
67869;SDS011;54673;52.262;6.830;2022-08-21T01:22:56;5.53;;;2.30;;
67869;SDS011;54673;52.262;6.830;2022-08-21T01:25:22;3.77;;;1.97;;
67869;SDS011;54673;52.262;6.830;2022-08-21T01:27:47;3.67;;;2.20;;
67869;SDS011;54673;52.262;6.830;2022-08-21T01:30:16;3.20;;;2.10;;
67869;SDS011;54673;52.262;6.830;2022-08-21T01:32:44;4.47;;;2.35;;
67869;SDS011;54673;52.262;6.830;2022-08-21T01:35:11;4.63;;;2.50;;
67869;SDS011;54673;52.262;6.830;2022-08-21T01:37:38;5.17;;;2.10;;
67869;SDS011;54673;52.262;6.830;2022-08-21T01:40:04;4.07;;;2.40;;
67869;SDS011;54673;52.262;6.830;2022-08-21T01:42:30;4.57;;;2.03;;
67869;SDS011;54673;52.262;6.830;2022-08-21T01:44:56;4.90;;;2.05;;
67869;SDS011;54673;52.262;6.830;2022-08-21T01:47:21;3.60;;;2.10;;
67869;SDS011;54673;52.262;6.830;2022-08-21T01:49:47;7.53;;;2.33;;
67869;SDS011;54673;52.262;6.830;2022-08-21T01:52:12;4.03;;;2.07;;
67869;SDS011;54673;52.262;6.830;2022-08-21T01:54:38;4.70;;;2.50;;
67869;SDS011;54673;52.262;6.830;2022-08-21T01:57:04;5.13;;;2.20;;
67869;SDS011;54673;52.262;6.830;2022-08-21T01:59:31;8.00;;;2.40;;
67869;SDS011;54673;52.262;6.830;2022-08-21T02:01:57;3.53;;;2.10;;
67869;SDS011;54673;52.262;6.830;2022-08-21T02:04:23;2.97;;;1.92;;
67869;SDS011;54673;52.262;6.830;2022-08-21T02:06:49;4.20;;;2.10;;
67869;SDS011;54673;52.262;6.830;2022-08-21T02:09:15;3.30;;;2.10;;
67869;SDS011;54673;52.262;6.830;2022-08-21T02:11:41;5.00;;;2.22;;
67869;SDS011;54673;52.262;6.830;2022-08-21T02:14:08;6.23;;;2.27;;
67869;SDS011;54673;52.262;6.830;2022-08-21T02:16:38;5.78;;;2.33;;
67869;SDS011;54673;52.262;6.830;2022-08-21T02:19:05;4.15;;;2.05;;
67869;SDS011;54673;52.262;6.830;2022-08-21T02:21:30;4.30;;;2.30;;
67869;SDS011;54673;52.262;6.830;2022-08-21T02:23:56;4.90;;;2.38;;
67869;SDS011;54673;52.262;6.830;2022-08-21T02:26:22;3.80;;;2.17;;
67869;SDS011;54673;52.262;6.830;2022-08-21T02:28:47;4.57;;;2.00;;
67869;SDS011;54673;52.262;6.830;2022-08-21T02:31:13;5.90;;;2.53;;
67869;SDS011;54673;52.262;6.830;2022-08-21T02:33:39;6.18;;;2.70;;
67869;SDS011;54673;52.262;6.830;2022-08-21T02:36:05;3.57;;;2.43;;
67869;SDS011;54673;52.262;6.830;2022-08-21T02:38:33;2.43;;;2.20;;
67869;SDS011;54673;52.262;6.830;2022-08-21T02:41:03;3.75;;;2.08;;
67869;SDS011;54673;52.262;6.830;2022-08-21T02:43:33;4.47;;;2.37;;
67869;SDS011;54673;52.262;6.830;2022-08-21T02:45:59;6.03;;;2.10;;
67869;SDS011;54673;52.262;6.830;2022-08-21T02:48:27;5.35;;;2.20;;
67869;SDS011;54673;52.262;6.830;2022-08-21T02:50:58;4.97;;;1.90;;
67869;SDS011;54673;52.262;6.830;2022-08-21T02:53:26;5.80;;;2.40;;
67869;SDS011;54673;52.262;6.830;2022-08-21T02:55:53;4.63;;;2.10;;
67869;SDS011;54673;52.262;6.830;2022-08-21T02:58:21;4.73;;;2.30;;
67869;SDS011;54673;52.262;6.830;2022-08-21T03:00:49;2.80;;;2.07;;
67869;SDS011;54673;52.262;6.830;2022-08-21T03:03:14;2.83;;;2.20;;
67869;SDS011;54673;52.262;6.830;2022-08-21T03:05:41;3.77;;;1.93;;
67869;SDS011;54673;52.262;6.830;2022-08-21T03:08:09;2.83;;;2.00;;
67869;SDS011;54673;52.262;6.830;2022-08-21T03:10:36;3.37;;;2.00;;
67869;SDS011;54673;52.262;6.830;2022-08-21T03:13:04;3.33;;;2.03;;
67869;SDS011;54673;52.262;6.830;2022-08-21T03:15:31;5.38;;;2.30;;
67869;SDS011;54673;52.262;6.830;2022-08-21T03:17:56;4.63;;;2.30;;
67869;SDS011;54673;52.262;6.830;2022-08-21T03:20:24;4.07;;;2.08;;
67869;SDS011;54673;52.262;6.830;2022-08-21T03:22:51;3.60;;;1.90;;
67869;SDS011;54673;52.262;6.830;2022-08-21T03:25:18;2.40;;;2.00;;
67869;SDS011;54673;52.262;6.830;2022-08-21T03:27:45;4.80;;;2.20;;
67869;SDS011;54673;52.262;6.830;2022-08-21T03:30:14;4.93;;;2.43;;
67869;SDS011;54673;52.262;6.830;2022-08-21T03:32:40;4.13;;;2.13;;
67869;SDS011;54673;52.262;6.830;2022-08-21T03:35:07;4.63;;;2.28;;
67869;SDS011;54673;52.262;6.830;2022-08-21T03:37:33;2.83;;;1.90;;
67869;SDS011;54673;52.262;6.830;2022-08-21T03:39:58;4.15;;;2.35;;
67869;SDS011;54673;52.262;6.830;2022-08-21T03:42:24;3.43;;;2.30;;
67869;SDS011;54673;52.262;6.830;2022-08-21T03:44:50;2.90;;;2.20;;
67869;SDS011;54673;52.262;6.830;2022-08-21T03:47:15;4.97;;;2.40;;
67869;SDS011;54673;52.262;6.830;2022-08-21T03:49:41;4.10;;;2.30;;
67869;SDS011;54673;52.262;6.830;2022-08-21T03:52:06;5.23;;;2.50;;
67869;SDS011;54673;52.262;6.830;2022-08-21T03:54:32;4.57;;;2.77;;
67869;SDS011;54673;52.262;6.830;2022-08-21T03:56:58;4.28;;;2.38;;
67869;SDS011;54673;52.262;6.830;2022-08-21T03:59:24;4.43;;;2.53;;
67869;SDS011;54673;52.262;6.830;2022-08-21T04:04:26;4.07;;;2.25;;
67869;SDS011;54673;52.262;6.830;2022-08-21T04:06:52;3.47;;;2.40;;
67869;SDS011;54673;52.262;6.830;2022-08-21T04:09:19;4.28;;;2.60;;
67869;SDS011;54673;52.262;6.830;2022-08-21T04:11:45;2.90;;;2.30;;
67869;SDS011;54673;52.262;6.830;2022-08-21T04:14:12;3.40;;;2.37;;
67869;SDS011;54673;52.262;6.830;2022-08-21T04:16:38;4.43;;;2.60;;
67869;SDS011;54673;52.262;6.830;2022-08-21T04:19:04;4.37;;;2.73;;
67869;SDS011;54673;52.262;6.830;2022-08-21T04:21:29;4.45;;;2.60;;
67869;SDS011;54673;52.262;6.830;2022-08-21T04:23:56;5.20;;;2.63;;
67869;SDS011;54673;52.262;6.830;2022-08-21T04:26:21;4.28;;;2.55;;
67869;SDS011;54673;52.262;6.830;2022-08-21T04:28:47;3.63;;;2.65;;
67869;SDS011;54673;52.262;6.830;2022-08-21T04:31:13;3.17;;;2.40;;
67869;SDS011;54673;52.262;6.830;2022-08-21T04:33:39;4.35;;;2.50;;
67869;SDS011;54673;52.262;6.830;2022-08-21T04:36:04;5.17;;;2.47;;
67869;SDS011;54673;52.262;6.830;2022-08-21T04:38:31;6.05;;;2.50;;
67869;SDS011;54673;52.262;6.830;2022-08-21T04:40:57;3.97;;;2.43;;
67869;SDS011;54673;52.262;6.830;2022-08-21T04:43:23;4.28;;;2.50;;
67869;SDS011;54673;52.262;6.830;2022-08-21T04:45:49;3.23;;;2.57;;
67869;SDS011;54673;52.262;6.830;2022-08-21T04:48:16;3.20;;;2.38;;
67869;SDS011;54673;52.262;6.830;2022-08-21T04:50:48;3.80;;;2.60;;
67869;SDS011;54673;52.262;6.830;2022-08-21T04:53:24;3.30;;;2.43;;
67869;SDS011;54673;52.262;6.830;2022-08-21T04:55:56;4.78;;;2.95;;
67869;SDS011;54673;52.262;6.830;2022-08-21T04:58:25;4.68;;;2.90;;
67869;SDS011;54673;52.262;6.830;2022-08-21T05:00:53;3.13;;;2.20;;
67869;SDS011;54673;52.262;6.830;2022-08-21T05:03:20;3.25;;;2.60;;
67869;SDS011;54673;52.262;6.830;2022-08-21T05:05:47;3.97;;;2.73;;
67869;SDS011;54673;52.262;6.830;2022-08-21T05:08:14;4.57;;;2.63;;
67869;SDS011;54673;52.262;6.830;2022-08-21T05:10:42;3.75;;;2.67;;
67869;SDS011;54673;52.262;6.830;2022-08-21T05:13:09;4.33;;;2.80;;
67869;SDS011;54673;52.262;6.830;2022-08-21T05:15:36;5.10;;;2.92;;
67869;SDS011;54673;52.262;6.830;2022-08-21T05:18:02;4.45;;;2.65;;
67869;SDS011;54673;52.262;6.830;2022-08-21T05:20:28;4.93;;;2.83;;
67869;SDS011;54673;52.262;6.830;2022-08-21T05:22:54;3.45;;;2.67;;
67869;SDS011;54673;52.262;6.830;2022-08-21T05:25:19;4.30;;;3.03;;
67869;SDS011;54673;52.262;6.830;2022-08-21T05:27:45;5.28;;;2.83;;
67869;SDS011;54673;52.262;6.830;2022-08-21T05:30:11;4.72;;;3.00;;
67869;SDS011;54673;52.262;6.830;2022-08-21T05:32:38;4.00;;;2.97;;
67869;SDS011;54673;52.262;6.830;2022-08-21T05:35:04;4.68;;;2.60;;
67869;SDS011;54673;52.262;6.830;2022-08-21T05:37:31;3.97;;;2.80;;
67869;SDS011;54673;52.262;6.830;2022-08-21T05:39:58;3.95;;;2.78;;
67869;SDS011;54673;52.262;6.830;2022-08-21T05:42:25;3.80;;;2.40;;
67869;SDS011;54673;52.262;6.830;2022-08-21T05:44:51;6.10;;;2.60;;
67869;SDS011;54673;52.262;6.830;2022-08-21T05:47:16;3.77;;;2.70;;
67869;SDS011;54673;52.262;6.830;2022-08-21T05:49:42;3.78;;;2.28;;
67869;SDS011;54673;52.262;6.830;2022-08-21T05:52:07;4.00;;;2.70;;
67869;SDS011;54673;52.262;6.830;2022-08-21T05:54:34;5.93;;;2.30;;
67869;SDS011;54673;52.262;6.830;2022-08-21T05:57:01;5.97;;;2.37;;
67869;SDS011;54673;52.262;6.830;2022-08-21T05:59:27;4.13;;;2.80;;
67869;SDS011;54673;52.262;6.830;2022-08-21T06:01:52;5.30;;;2.90;;
67869;SDS011;54673;52.262;6.830;2022-08-21T06:04:18;3.78;;;2.50;;
67869;SDS011;54673;52.262;6.830;2022-08-21T06:06:44;5.43;;;2.97;;
67869;SDS011;54673;52.262;6.830;2022-08-21T06:09:09;4.37;;;2.63;;
67869;SDS011;54673;52.262;6.830;2022-08-21T06:11:35;3.55;;;2.30;;
67869;SDS011;54673;52.262;6.830;2022-08-21T06:14:01;4.33;;;2.47;;
67869;SDS011;54673;52.262;6.830;2022-08-21T06:16:27;7.78;;;2.95;;
67869;SDS011;54673;52.262;6.830;2022-08-21T06:18:54;4.88;;;2.53;;
67869;SDS011;54673;52.262;6.830;2022-08-21T06:21:19;5.00;;;2.50;;
67869;SDS011;54673;52.262;6.830;2022-08-21T06:23:45;6.80;;;2.90;;
67869;SDS011;54673;52.262;6.830;2022-08-21T06:26:11;9.30;;;2.85;;
67869;SDS011;54673;52.262;6.830;2022-08-21T06:28:38;4.40;;;2.40;;
67869;SDS011;54673;52.262;6.830;2022-08-21T06:31:10;9.07;;;2.40;;
67869;SDS011;54673;52.262;6.830;2022-08-21T06:33:49;5.70;;;2.40;;
67869;SDS011;54673;52.262;6.830;2022-08-21T06:36:15;6.17;;;2.60;;
67869;SDS011;54673;52.262;6.830;2022-08-21T06:38:41;4.40;;;2.30;;
67869;SDS011;54673;52.262;6.830;2022-08-21T06:41:07;6.47;;;2.40;;
67869;SDS011;54673;52.262;6.830;2022-08-21T06:43:33;4.13;;;2.13;;
67869;SDS011;54673;52.262;6.830;2022-08-21T06:45:58;4.32;;;2.17;;
67869;SDS011;54673;52.262;6.830;2022-08-21T06:48:24;5.33;;;2.33;;
67869;SDS011;54673;52.262;6.830;2022-08-21T06:50:50;4.47;;;2.45;;
67869;SDS011;54673;52.262;6.830;2022-08-21T06:53:18;6.40;;;2.40;;
67869;SDS011;54673;52.262;6.830;2022-08-21T06:55:45;3.10;;;2.20;;
67869;SDS011;54673;52.262;6.830;2022-08-21T06:58:11;4.03;;;2.23;;
67869;SDS011;54673;52.262;6.830;2022-08-21T07:00:44;3.47;;;1.92;;
67869;SDS011;54673;52.262;6.830;2022-08-21T07:03:21;4.28;;;2.00;;
67869;SDS011;54673;52.262;6.830;2022-08-21T07:05:49;4.87;;;2.20;;
67869;SDS011;54673;52.262;6.830;2022-08-21T07:08:15;4.97;;;2.25;;
67869;SDS011;54673;52.262;6.830;2022-08-21T07:10:41;3.50;;;2.10;;
67869;SDS011;54673;52.262;6.830;2022-08-21T07:13:07;3.95;;;1.70;;
67869;SDS011;54673;52.262;6.830;2022-08-21T07:15:33;3.63;;;2.00;;
67869;SDS011;54673;52.262;6.830;2022-08-21T07:17:58;3.92;;;2.08;;
67869;SDS011;54673;52.262;6.830;2022-08-21T07:20:24;4.37;;;1.93;;
67869;SDS011;54673;52.262;6.830;2022-08-21T07:22:51;4.13;;;2.08;;
67869;SDS011;54673;52.262;6.830;2022-08-21T07:25:16;3.88;;;1.60;;
67869;SDS011;54673;52.262;6.830;2022-08-21T07:27:42;7.47;;;1.53;;
67869;SDS011;54673;52.262;6.830;2022-08-21T07:30:07;4.33;;;1.70;;
67869;SDS011;54673;52.262;6.830;2022-08-21T07:32:33;8.65;;;1.50;;
67869;SDS011;54673;52.262;6.830;2022-08-21T07:34:59;2.97;;;1.60;;
67869;SDS011;54673;52.262;6.830;2022-08-21T07:37:24;9.70;;;1.80;;
67869;SDS011;54673;52.262;6.830;2022-08-21T07:39:50;3.70;;;1.60;;
67869;SDS011;54673;52.262;6.830;2022-08-21T07:42:16;3.73;;;1.70;;
67869;SDS011;54673;52.262;6.830;2022-08-21T07:44:42;3.13;;;1.75;;
67869;SDS011;54673;52.262;6.830;2022-08-21T07:47:08;4.40;;;2.07;;
67869;SDS011;54673;52.262;6.830;2022-08-21T07:49:33;9.95;;;2.22;;
67869;SDS011;54673;52.262;6.830;2022-08-21T07:51:59;7.63;;;1.90;;
67869;SDS011;54673;52.262;6.830;2022-08-21T07:54:25;5.38;;;1.77;;
67869;SDS011;54673;52.262;6.830;2022-08-21T07:56:51;3.80;;;1.60;;
67869;SDS011;54673;52.262;6.830;2022-08-21T07:59:16;3.40;;;1.67;;
67869;SDS011;54673;52.262;6.830;2022-08-21T08:01:42;4.20;;;1.80;;
67869;SDS011;54673;52.262;6.830;2022-08-21T08:04:07;5.78;;;2.15;;
67869;SDS011;54673;52.262;6.830;2022-08-21T08:06:33;4.27;;;1.83;;
67869;SDS011;54673;52.262;6.830;2022-08-21T08:08:59;3.23;;;1.93;;
67869;SDS011;54673;52.262;6.830;2022-08-21T08:11:26;4.72;;;2.05;;
67869;SDS011;54673;52.262;6.830;2022-08-21T08:13:52;6.60;;;2.10;;
67869;SDS011;54673;52.262;6.830;2022-08-21T08:16:18;6.80;;;1.97;;
67869;SDS011;54673;52.262;6.830;2022-08-21T08:18:44;3.63;;;1.85;;
67869;SDS011;54673;52.262;6.830;2022-08-21T08:21:10;7.10;;;2.00;;
67869;SDS011;54673;52.262;6.830;2022-08-21T08:23:36;5.90;;;1.90;;
67869;SDS011;54673;52.262;6.830;2022-08-21T08:26:02;7.47;;;2.30;;
67869;SDS011;54673;52.262;6.830;2022-08-21T08:28:28;5.03;;;1.93;;
67869;SDS011;54673;52.262;6.830;2022-08-21T08:30:56;7.53;;;2.15;;
67869;SDS011;54673;52.262;6.830;2022-08-21T08:33:22;4.82;;;1.90;;
67869;SDS011;54673;52.262;6.830;2022-08-21T08:35:48;6.00;;;2.10;;
67869;SDS011;54673;52.262;6.830;2022-08-21T08:38:16;5.60;;;2.17;;
67869;SDS011;54673;52.262;6.830;2022-08-21T08:43:28;5.55;;;2.00;;
67869;SDS011;54673;52.262;6.830;2022-08-21T08:45:57;6.45;;;2.50;;
67869;SDS011;54673;52.262;6.830;2022-08-21T08:48:39;5.50;;;2.40;;
67869;SDS011;54673;52.262;6.830;2022-08-21T08:51:15;4.95;;;2.58;;
67869;SDS011;54673;52.262;6.830;2022-08-21T08:53:59;6.15;;;2.83;;
67869;SDS011;54673;52.262;6.830;2022-08-21T08:56:33;6.20;;;2.20;;
67869;SDS011;54673;52.262;6.830;2022-08-21T08:59:01;5.07;;;2.40;;
67869;SDS011;54673;52.262;6.830;2022-08-21T09:01:33;5.83;;;2.67;;
67869;SDS011;54673;52.262;6.830;2022-08-21T09:03:59;10.30;;;2.50;;
67869;SDS011;54673;52.262;6.830;2022-08-21T09:06:39;4.63;;;2.33;;
67869;SDS011;54673;52.262;6.830;2022-08-21T09:20:24;6.00;;;2.47;;
67869;SDS011;54673;52.262;6.830;2022-08-21T09:22:58;7.73;;;3.00;;
67869;SDS011;54673;52.262;6.830;2022-08-21T09:25:39;6.70;;;2.33;;
67869;SDS011;54673;52.262;6.830;2022-08-21T09:28:14;8.88;;;2.75;;
67869;SDS011;54673;52.262;6.830;2022-08-21T09:30:40;6.00;;;2.30;;
67869;SDS011;54673;52.262;6.830;2022-08-21T09:33:06;8.25;;;2.17;;
67869;SDS011;54673;52.262;6.830;2022-08-21T09:35:32;5.67;;;2.53;;
67869;SDS011;54673;52.262;6.830;2022-08-21T09:38:04;4.80;;;2.47;;
67869;SDS011;54673;52.262;6.830;2022-08-21T09:40:43;6.63;;;2.60;;
67869;SDS011;54673;52.262;6.830;2022-08-21T09:45:37;5.00;;;2.20;;
67869;SDS011;54673;52.262;6.830;2022-08-21T09:48:08;5.77;;;2.30;;
67869;SDS011;54673;52.262;6.830;2022-08-21T09:50:33;4.45;;;2.50;;
67869;SDS011;54673;52.262;6.830;2022-08-21T09:53:00;7.20;;;2.23;;
67869;SDS011;54673;52.262;6.830;2022-08-21T09:55:38;4.70;;;2.15;;
67869;SDS011;54673;52.262;6.830;2022-08-21T09:58:32;6.20;;;2.27;;
67869;SDS011;54673;52.262;6.830;2022-08-21T10:01:00;8.07;;;2.58;;
67869;SDS011;54673;52.262;6.830;2022-08-21T10:03:28;9.23;;;2.20;;
67869;SDS011;54673;52.262;6.830;2022-08-21T10:08:30;8.27;;;2.25;;
67869;SDS011;54673;52.262;6.830;2022-08-21T10:10:57;6.57;;;3.00;;
67869;SDS011;54673;52.262;6.830;2022-08-21T10:13:47;11.47;;;3.00;;
67869;SDS011;54673;52.262;6.830;2022-08-21T10:19:05;6.32;;;2.10;;
67869;SDS011;54673;52.262;6.830;2022-08-21T10:27:51;4.93;;;2.30;;
67869;SDS011;54673;52.262;6.830;2022-08-21T10:44:19;4.27;;;1.70;;
67869;SDS011;54673;52.262;6.830;2022-08-21T10:49:34;4.57;;;1.80;;
67869;SDS011;54673;52.262;6.830;2022-08-21T10:52:37;6.70;;;2.10;;
67869;SDS011;54673;52.262;6.830;2022-08-21T10:55:32;5.07;;;2.28;;
67869;SDS011;54673;52.262;6.830;2022-08-21T10:58:09;6.70;;;2.20;;
67869;SDS011;54673;52.262;6.830;2022-08-21T11:00:43;11.10;;;2.63;;
67869;SDS011;54673;52.262;6.830;2022-08-21T11:03:24;4.13;;;2.25;;
67869;SDS011;54673;52.262;6.830;2022-08-21T11:05:59;6.53;;;2.10;;
67869;SDS011;54673;52.262;6.830;2022-08-21T11:08:32;6.53;;;1.93;;
67869;SDS011;54673;52.262;6.830;2022-08-21T11:11:08;6.85;;;1.85;;
67869;SDS011;54673;52.262;6.830;2022-08-21T11:16:37;7.37;;;1.63;;
67869;SDS011;54673;52.262;6.830;2022-08-21T11:19:17;4.18;;;2.03;;
67869;SDS011;54673;52.262;6.830;2022-08-21T11:21:46;7.63;;;2.08;;
67869;SDS011;54673;52.262;6.830;2022-08-21T11:24:37;4.10;;;1.90;;
67869;SDS011;54673;52.262;6.830;2022-08-21T11:27:12;6.28;;;2.17;;
67869;SDS011;54673;52.262;6.830;2022-08-21T11:29:44;6.47;;;1.63;;
67869;SDS011;54673;52.262;6.830;2022-08-21T11:35:13;4.05;;;1.85;;
67869;SDS011;54673;52.262;6.830;2022-08-21T11:52:06;5.30;;;1.75;;
67869;SDS011;54673;52.262;6.830;2022-08-21T12:02:23;4.88;;;1.50;;
67869;SDS011;54673;52.262;6.830;2022-08-21T12:05:02;5.13;;;1.50;;
67869;SDS011;54673;52.262;6.830;2022-08-21T12:07:35;4.55;;;1.73;;
67869;SDS011;54673;52.262;6.830;2022-08-21T12:10:13;5.85;;;1.88;;
67869;SDS011;54673;52.262;6.830;2022-08-21T12:12:43;6.63;;;1.90;;
67869;SDS011;54673;52.262;6.830;2022-08-21T12:15:43;5.20;;;1.80;;
67869;SDS011;54673;52.262;6.830;2022-08-21T12:23:25;4.03;;;1.60;;
67869;SDS011;54673;52.262;6.830;2022-08-21T12:26:00;8.67;;;2.33;;
67869;SDS011;54673;52.262;6.830;2022-08-21T12:28:28;5.93;;;1.93;;
67869;SDS011;54673;52.262;6.830;2022-08-21T12:30:55;5.70;;;1.98;;
67869;SDS011;54673;52.262;6.830;2022-08-21T12:33:23;6.63;;;2.40;;
67869;SDS011;54673;52.262;6.830;2022-08-21T12:36:06;6.40;;;2.47;;
67869;SDS011;54673;52.262;6.830;2022-08-21T12:38:48;5.68;;;2.03;;
67869;SDS011;54673;52.262;6.830;2022-08-21T12:41:41;4.13;;;2.00;;
67869;SDS011;54673;52.262;6.830;2022-08-21T12:44:15;4.47;;;1.93;;
67869;SDS011;54673;52.262;6.830;2022-08-21T12:46:46;4.95;;;1.95;;
67869;SDS011;54673;52.262;6.830;2022-08-21T12:54:24;5.90;;;1.95;;
67869;SDS011;54673;52.262;6.830;2022-08-21T12:57:01;5.25;;;1.75;;
67869;SDS011;54673;52.262;6.830;2022-08-21T12:59:28;6.77;;;1.87;;
67869;SDS011;54673;52.262;6.830;2022-08-21T13:01:55;6.80;;;1.92;;
67869;SDS011;54673;52.262;6.830;2022-08-21T13:04:25;5.18;;;2.08;;
67869;SDS011;54673;52.262;6.830;2022-08-21T13:06:58;3.37;;;1.87;;
67869;SDS011;54673;52.262;6.830;2022-08-21T13:09:26;6.10;;;1.90;;
67869;SDS011;54673;52.262;6.830;2022-08-21T13:11:53;5.65;;;2.20;;
67869;SDS011;54673;52.262;6.830;2022-08-21T13:16:54;2.88;;;1.67;;
67869;SDS011;54673;52.262;6.830;2022-08-21T13:19:21;5.57;;;1.92;;
67869;SDS011;54673;52.262;6.830;2022-08-21T13:21:47;4.13;;;1.90;;
67869;SDS011;54673;52.262;6.830;2022-08-21T13:24:14;7.07;;;2.05;;
67869;SDS011;54673;52.262;6.830;2022-08-21T13:26:43;4.50;;;2.07;;
67869;SDS011;54673;52.262;6.830;2022-08-21T13:29:10;5.82;;;1.67;;
67869;SDS011;54673;52.262;6.830;2022-08-21T13:31:39;7.20;;;1.80;;
67869;SDS011;54673;52.262;6.830;2022-08-21T13:34:07;4.55;;;1.75;;
67869;SDS011;54673;52.262;6.830;2022-08-21T13:36:36;5.70;;;2.08;;
67869;SDS011;54673;52.262;6.830;2022-08-21T13:39:06;5.90;;;2.10;;
67869;SDS011;54673;52.262;6.830;2022-08-21T13:41:36;7.47;;;2.20;;
67869;SDS011;54673;52.262;6.830;2022-08-21T13:44:19;4.20;;;1.70;;
67869;SDS011;54673;52.262;6.830;2022-08-21T13:46:52;5.17;;;2.30;;
67869;SDS011;54673;52.262;6.830;2022-08-21T13:49:19;5.15;;;1.63;;
67869;SDS011;54673;52.262;6.830;2022-08-21T13:51:48;5.13;;;2.22;;
67869;SDS011;54673;52.262;6.830;2022-08-21T13:54:21;6.43;;;1.90;;
67869;SDS011;54673;52.262;6.830;2022-08-21T13:56:52;5.43;;;1.92;;
67869;SDS011;54673;52.262;6.830;2022-08-21T13:59:25;6.82;;;1.83;;
67869;SDS011;54673;52.262;6.830;2022-08-21T14:01:58;4.33;;;1.67;;
67869;SDS011;54673;52.262;6.830;2022-08-21T14:04:43;7.20;;;1.80;;
67869;SDS011;54673;52.262;6.830;2022-08-21T14:07:26;4.93;;;1.85;;
67869;SDS011;54673;52.262;6.830;2022-08-21T14:10:00;5.00;;;1.77;;
67869;SDS011;54673;52.262;6.830;2022-08-21T14:12:34;5.38;;;1.80;;
67869;SDS011;54673;52.262;6.830;2022-08-21T14:15:06;8.60;;;1.90;;
67869;SDS011;54673;52.262;6.830;2022-08-21T14:17:33;3.20;;;1.60;;
67869;SDS011;54673;52.262;6.830;2022-08-21T14:20:02;5.97;;;1.75;;
67869;SDS011;54673;52.262;6.830;2022-08-21T14:22:40;4.63;;;1.48;;
67869;SDS011;54673;52.262;6.830;2022-08-21T14:25:10;5.13;;;1.80;;
67869;SDS011;54673;52.262;6.830;2022-08-21T14:28:02;8.18;;;2.00;;
67869;SDS011;54673;52.262;6.830;2022-08-21T14:30:28;6.32;;;2.17;;
67869;SDS011;54673;52.262;6.830;2022-08-21T14:32:57;4.97;;;2.03;;
67869;SDS011;54673;52.262;6.830;2022-08-21T14:35:23;5.85;;;1.80;;
67869;SDS011;54673;52.262;6.830;2022-08-21T14:37:49;5.70;;;1.92;;
67869;SDS011;54673;52.262;6.830;2022-08-21T14:40:15;4.57;;;1.93;;
67869;SDS011;54673;52.262;6.830;2022-08-21T14:42:42;4.63;;;2.22;;
67869;SDS011;54673;52.262;6.830;2022-08-21T14:45:19;5.00;;;2.13;;
67869;SDS011;54673;52.262;6.830;2022-08-21T14:47:50;4.03;;;1.93;;
67869;SDS011;54673;52.262;6.830;2022-08-21T14:50:16;3.97;;;1.90;;
67869;SDS011;54673;52.262;6.830;2022-08-21T14:52:41;4.37;;;2.27;;
67869;SDS011;54673;52.262;6.830;2022-08-21T14:55:08;6.72;;;2.20;;
67869;SDS011;54673;52.262;6.830;2022-08-21T14:57:38;10.30;;;2.00;;
67869;SDS011;54673;52.262;6.830;2022-08-21T15:00:04;5.30;;;2.00;;
67869;SDS011;54673;52.262;6.830;2022-08-21T15:02:31;4.57;;;2.00;;
67869;SDS011;54673;52.262;6.830;2022-08-21T15:04:57;6.50;;;2.17;;
67869;SDS011;54673;52.262;6.830;2022-08-21T15:07:22;3.88;;;1.83;;
67869;SDS011;54673;52.262;6.830;2022-08-21T15:09:48;4.70;;;1.80;;
67869;SDS011;54673;52.262;6.830;2022-08-21T15:12:13;3.57;;;1.90;;
67869;SDS011;54673;52.262;6.830;2022-08-21T15:14:40;6.40;;;1.98;;
67869;SDS011;54673;52.262;6.830;2022-08-21T15:17:07;3.72;;;1.92;;
67869;SDS011;54673;52.262;6.830;2022-08-21T15:19:34;5.77;;;2.10;;
67869;SDS011;54673;52.262;6.830;2022-08-21T15:22:00;8.80;;;4.10;;
67869;SDS011;54673;52.262;6.830;2022-08-21T15:24:26;7.03;;;3.17;;
67869;SDS011;54673;52.262;6.830;2022-08-21T15:26:52;6.95;;;3.17;;
67869;SDS011;54673;52.262;6.830;2022-08-21T15:29:18;4.43;;;2.80;;
67869;SDS011;54673;52.262;6.830;2022-08-21T15:31:54;4.90;;;2.30;;
67869;SDS011;54673;52.262;6.830;2022-08-21T15:34:22;5.60;;;2.20;;
67869;SDS011;54673;52.262;6.830;2022-08-21T15:36:49;6.57;;;2.30;;
67869;SDS011;54673;52.262;6.830;2022-08-21T15:39:14;5.87;;;2.20;;
67869;SDS011;54673;52.262;6.830;2022-08-21T15:41:41;3.92;;;2.45;;
67869;SDS011;54673;52.262;6.830;2022-08-21T15:44:08;6.47;;;2.33;;
67869;SDS011;54673;52.262;6.830;2022-08-21T15:46:35;6.25;;;2.20;;
67869;SDS011;54673;52.262;6.830;2022-08-21T15:49:01;5.70;;;2.30;;
67869;SDS011;54673;52.262;6.830;2022-08-21T15:51:27;4.63;;;2.10;;
67869;SDS011;54673;52.262;6.830;2022-08-21T15:53:52;6.93;;;2.20;;
67869;SDS011;54673;52.262;6.830;2022-08-21T15:56:23;6.53;;;3.07;;
67869;SDS011;54673;52.262;6.830;2022-08-21T15:58:53;9.40;;;3.37;;
67869;SDS011;54673;52.262;6.830;2022-08-21T16:01:22;5.27;;;3.00;;
67869;SDS011;54673;52.262;6.830;2022-08-21T16:03:49;6.82;;;2.70;;
67869;SDS011;54673;52.262;6.830;2022-08-21T16:06:17;8.37;;;3.33;;
67869;SDS011;54673;52.262;6.830;2022-08-21T16:08:43;10.48;;;5.28;;
67869;SDS011;54673;52.262;6.830;2022-08-21T16:11:08;8.83;;;4.20;;
67869;SDS011;54673;52.262;6.830;2022-08-21T16:13:38;6.53;;;3.42;;
67869;SDS011;54673;52.262;6.830;2022-08-21T16:16:08;6.77;;;3.47;;
67869;SDS011;54673;52.262;6.830;2022-08-21T16:18:39;5.63;;;3.03;;
67869;SDS011;54673;52.262;6.830;2022-08-21T16:21:06;13.35;;;3.30;;
67869;SDS011;54673;52.262;6.830;2022-08-21T16:23:32;6.57;;;3.90;;
67869;SDS011;54673;52.262;6.830;2022-08-21T16:25:59;8.50;;;3.38;;